Time;durP1;ratioP1;P1;durP2;ratioP2;P2;SDS_P1;SDS_P2;PMS_P1;PMS_P2;Temp;Humidity;BMP_temperature;BMP_pressure;BME280_temperature;BME280_humidity;BME280_pressure;Samples;Min_cycle;Max_cycle;Signal;HPM_P1;HPM_P2
2023/09/20 00:01:51;;;;;;;9.40;9.10;;;13.10;99.90;;;;;;6235777;22;20199;-81
2023/09/20 00:04:18;;;;;;;9.83;9.53;;;13.10;99.90;;;;;;6238108;23;20187;-80
2023/09/20 00:06:47;;;;;;;9.60;9.30;;;13.10;99.90;;;;;;6235277;23;20210;-80
2023/09/20 00:09:15;;;;;;;9.70;9.40;;;13.10;99.90;;;;;;6235758;23;20191;-80
2023/09/20 00:11:44;;;;;;;9.50;9.20;;;13.10;99.90;;;;;;6234440;22;20199;-80
2023/09/20 00:14:11;;;;;;;9.40;9.10;;;13.10;99.90;;;;;;6236217;23;20199;-80
2023/09/20 00:16:39;;;;;;;9.60;9.30;;;13.10;99.90;;;;;;6234763;23;20198;-79
2023/09/20 00:19:06;;;;;;;9.50;9.20;;;13.00;99.90;;;;;;6235704;23;20203;-80
2023/09/20 00:21:34;;;;;;;9.43;9.13;;;13.00;99.90;;;;;;6234690;22;20199;-80
2023/09/20 00:24:05;;;;;;;9.60;9.30;;;13.00;99.90;;;;;;6235865;23;20254;-80
2023/09/20 00:26:33;;;;;;;9.40;9.10;;;12.90;99.90;;;;;;6236215;23;20207;-81
2023/09/20 00:29:04;;;;;;;9.50;9.20;;;13.00;99.90;;;;;;6235960;23;20262;-81
2023/09/20 00:31:32;;;;;;;9.63;9.33;;;12.90;99.90;;;;;;6235201;22;20191;-80
2023/09/20 00:34:00;;;;;;;9.40;9.10;;;12.90;99.90;;;;;;6235145;23;20203;-81
2023/09/20 00:36:28;;;;;;;9.50;9.20;;;12.80;99.90;;;;;;6236012;23;20202;-80
2023/09/20 00:38:57;;;;;;;9.57;9.27;;;12.80;99.90;;;;;;6234772;23;20195;-80
2023/09/20 00:41:26;;;;;;;9.57;9.27;;;12.80;99.90;;;;;;6235232;22;20254;-80
2023/09/20 00:43:54;;;;;;;9.50;9.20;;;12.80;99.90;;;;;;6235985;23;20202;-80
2023/09/20 00:46:22;;;;;;;9.80;9.50;;;12.80;99.90;;;;;;6236445;23;20201;-81
2023/09/20 00:48:50;;;;;;;9.73;9.43;;;12.80;99.90;;;;;;6236139;23;20198;-80
2023/09/20 00:51:18;;;;;;;9.73;9.43;;;12.90;99.90;;;;;;6235435;23;20225;-80
2023/09/20 00:53:45;;;;;;;9.67;9.37;;;12.80;99.90;;;;;;6237473;23;20214;-80
2023/09/20 00:56:13;;;;;;;9.40;9.10;;;12.90;99.90;;;;;;6237074;23;20191;-80
2023/09/20 00:58:43;;;;;;;9.10;8.80;;;12.90;99.90;;;;;;6236956;23;20207;-81
2023/09/20 01:01:11;;;;;;;9.20;8.90;;;12.90;99.90;;;;;;6236446;23;20187;-81
2023/09/20 01:03:39;;;;;;;9.20;8.90;;;12.90;99.90;;;;;;6236293;22;20195;-80
2023/09/20 01:06:08;;;;;;;9.50;9.20;;;12.90;99.90;;;;;;6239907;23;20214;-80
2023/09/20 01:08:35;;;;;;;9.47;9.17;;;12.90;99.90;;;;;;6240326;23;20198;-80
2023/09/20 01:11:03;;;;;;;9.60;9.30;;;12.90;99.90;;;;;;6243454;23;20213;-80
2023/09/20 01:13:31;;;;;;;9.70;9.40;;;12.80;99.90;;;;;;6240738;22;20282;-80
2023/09/20 01:16:01;;;;;;;9.70;9.40;;;12.80;99.90;;;;;;6244149;23;20209;-80
2023/09/20 01:18:28;;;;;;;9.60;9.30;;;12.80;99.90;;;;;;6240681;23;20186;-80
2023/09/20 01:20:55;;;;;;;9.70;9.40;;;12.80;99.90;;;;;;6241438;23;20201;-81
2023/09/20 01:23:23;;;;;;;9.77;9.47;;;12.70;99.90;;;;;;6243116;22;20191;-81
2023/09/20 01:25:51;;;;;;;9.63;9.33;;;12.70;99.90;;;;;;6247530;23;20206;-81
2023/09/20 01:28:18;;;;;;;9.93;9.63;;;12.70;99.90;;;;;;6247851;22;20182;-81
2023/09/20 01:30:49;;;;;;;9.77;9.47;;;12.70;99.90;;;;;;6247689;23;20207;-81
2023/09/20 01:33:17;;;;;;;9.70;9.40;;;12.60;99.90;;;;;;6247989;22;20182;-81
2023/09/20 01:35:45;;;;;;;9.60;9.30;;;12.50;99.90;;;;;;6247718;23;20186;-81
2023/09/20 01:38:12;;;;;;;9.60;9.30;;;12.50;99.90;;;;;;6248460;23;20199;-82
2023/09/20 01:40:41;;;;;;;9.90;9.60;;;12.50;99.90;;;;;;6248668;23;20199;-81
2023/09/20 01:43:08;;;;;;;10.10;9.80;;;12.40;99.90;;;;;;6246281;22;20196;-81
2023/09/20 01:45:36;;;;;;;9.60;9.30;;;12.50;99.90;;;;;;6244930;23;20203;-81
2023/09/20 01:48:11;;;;;;;9.80;9.50;;;12.50;99.90;;;;;;6247930;23;20206;-81
2023/09/20 01:50:41;;;;;;;9.57;9.27;;;12.50;99.90;;;;;;6246271;23;20187;-81
2023/09/20 04:23:00;;;;;;;8.90;8.60;;;12.00;99.90;;;;;;5940312;23;20224;-89
2023/09/20 04:45:22;;;;;;;;;;;;;;;;;;;;;
2023/09/20 04:49:03;;;;;;;8.60;8.40;;;11.90;99.90;;;;;;6047759;23;20227;-88
2023/09/20 07:53:42;;;;;;;10.55;10.25;;;17.40;99.90;;;;;;6233509;22;20206;-81
2023/09/20 07:56:11;;;;;;;10.65;10.35;;;17.50;99.90;;;;;;6235553;23;20258;-81
2023/09/20 07:58:40;;;;;;;10.70;10.40;;;17.60;99.90;;;;;;6234730;23;20234;-80
2023/09/20 08:01:10;;;;;;;10.32;10.02;;;17.70;99.90;;;;;;6236726;23;20183;-80
2023/09/20 08:03:38;;;;;;;10.80;10.50;;;17.80;99.90;;;;;;6235335;23;20217;-81
2023/09/20 08:06:08;;;;;;;10.48;10.18;;;18.00;99.90;;;;;;6235319;23;20199;-80
2023/09/20 08:08:36;;;;;;;10.30;10.00;;;18.10;99.90;;;;;;6235292;23;20251;-81
2023/09/20 08:11:05;;;;;;;10.52;10.23;;;18.30;99.90;;;;;;6234269;23;20263;-80
2023/09/20 08:13:32;;;;;;;10.63;10.32;;;18.40;99.90;;;;;;6233292;23;20225;-80
2023/09/20 08:16:02;;;;;;;10.68;10.38;;;18.60;99.90;;;;;;6234992;23;20187;-80
2023/09/20 08:21:14;;;;;;;11.00;10.70;;;19.00;99.90;;;;;;6234211;23;20219;-81
2023/09/20 08:59:50;;;;;;;10.80;10.50;;;21.70;99.90;;;;;;6236011;23;20194;-80
2023/09/20 09:02:18;;;;;;;10.50;10.20;;;21.90;99.90;;;;;;6235258;23;20211;-81
2023/09/20 09:04:46;;;;;;;10.50;10.20;;;22.10;99.90;;;;;;6235169;23;20195;-81
2023/09/20 09:07:13;;;;;;;10.32;10.02;;;22.30;99.90;;;;;;6235386;23;20265;-81
2023/09/20 09:09:42;;;;;;;10.40;10.10;;;22.60;99.90;;;;;;6235960;23;20204;-81
2023/09/20 09:12:10;;;;;;;10.20;9.90;;;22.80;99.90;;;;;;6234726;23;20191;-81
2023/09/20 09:14:41;;;;;;;10.60;10.30;;;22.90;99.90;;;;;;6235258;23;20227;-82
2023/09/20 09:17:10;;;;;;;10.30;10.00;;;22.90;99.90;;;;;;6235050;23;20199;-81
2023/09/20 09:19:38;;;;;;;10.40;10.10;;;23.00;99.90;;;;;;6234828;23;20218;-80
2023/09/20 09:22:07;;;;;;;10.68;10.38;;;23.10;99.90;;;;;;6234476;23;20242;-82
2023/09/20 09:24:53;;;;;;;10.68;10.38;;;23.00;99.90;;;;;;6236492;23;20287;-81
2023/09/20 09:27:21;;;;;;;10.50;10.20;;;22.90;99.90;;;;;;6238975;23;20195;-80
2023/09/20 09:29:49;;;;;;;10.50;10.20;;;22.90;99.90;;;;;;6238511;23;20195;-80
2023/09/20 09:32:19;;;;;;;10.60;10.30;;;23.00;99.90;;;;;;6235337;23;20206;-80
2023/09/20 09:34:48;;;;;;;10.35;10.05;;;23.20;99.90;;;;;;6235161;23;20207;-80
2023/09/20 09:37:16;;;;;;;10.30;10.00;;;23.40;99.90;;;;;;6228899;23;20206;-80
2023/09/20 09:40:00;;;;;;;10.32;10.02;;;23.40;99.90;;;;;;6233960;23;20267;-81
2023/09/20 09:42:28;;;;;;;9.98;9.68;;;23.40;99.90;;;;;;6234915;23;20221;-80
2023/09/20 09:44:56;;;;;;;10.20;9.90;;;23.50;99.90;;;;;;6234170;23;20199;-80
2023/09/20 09:47:24;;;;;;;10.10;9.80;;;23.60;99.90;;;;;;6234096;23;20214;-81
2023/09/20 09:49:54;;;;;;;10.20;9.90;;;23.70;99.90;;;;;;6234739;23;20195;-80
2023/09/20 09:52:24;;;;;;;10.20;9.90;;;23.80;99.90;;;;;;6234287;22;20245;-80
2023/09/20 09:54:53;;;;;;;10.27;9.98;;;23.80;99.90;;;;;;6235083;23;20182;-82
2023/09/20 09:57:21;;;;;;;10.45;10.15;;;23.80;99.90;;;;;;6233354;23;20191;-80
2023/09/20 09:59:49;;;;;;;10.32;10.02;;;23.90;99.90;;;;;;6234247;23;20258;-81
2023/09/20 10:02:21;;;;;;;10.18;9.88;;;24.10;99.90;;;;;;6233109;23;20209;-80
2023/09/20 10:04:55;;;;;;;10.30;10.00;;;24.40;99.90;;;;;;6233644;23;20276;-80
2023/09/20 10:07:29;;;;;;;10.35;10.05;;;24.30;99.90;;;;;;6234682;23;20203;-81
2023/09/20 10:10:08;;;;;;;10.40;10.10;;;24.10;99.90;;;;;;6233778;23;20198;-80
2023/09/20 10:12:38;;;;;;;10.50;10.20;;;24.10;99.90;;;;;;6233117;23;20550;-80
2023/09/20 10:15:09;;;;;;;10.38;10.07;;;24.20;99.90;;;;;;6233476;23;20187;-80
2023/09/20 10:17:45;;;;;;;10.40;10.10;;;24.40;99.90;;;;;;6233444;23;20198;-80
2023/09/20 10:20:16;;;;;;;10.60;10.30;;;24.80;99.90;;;;;;6233407;23;20195;-81
2023/09/20 10:22:45;;;;;;;10.65;10.35;;;24.90;99.90;;;;;;6233248;23;20203;-80
2023/09/20 10:25:31;;;;;;;10.32;10.02;;;24.90;99.90;;;;;;6233284;23;20183;-81
2023/09/20 10:27:58;;;;;;;10.25;9.95;;;24.80;99.90;;;;;;6234865;23;20190;-81
2023/09/20 10:30:28;;;;;;;10.60;10.30;;;24.80;99.90;;;;;;6232392;23;20191;-80
2023/09/20 10:32:59;;;;;;;10.32;10.02;;;24.70;99.90;;;;;;6231236;23;20203;-80
2023/09/20 10:35:29;;;;;;;10.20;9.90;;;24.50;99.90;;;;;;6231968;23;20187;-80
2023/09/20 10:38:20;;;;;;;10.23;9.93;;;24.60;99.90;;;;;;6232754;23;20191;-80
2023/09/20 10:41:05;;;;;;;10.30;10.00;;;24.70;99.90;;;;;;6231670;23;20217;-80
2023/09/20 10:43:49;;;;;;;10.30;10.00;;;24.80;99.90;;;;;;6230838;23;20339;-79
2023/09/20 10:46:22;;;;;;;10.10;9.80;;;25.00;99.90;;;;;;6232314;23;20198;-80
2023/09/20 10:48:52;;;;;;;9.95;9.65;;;25.10;99.90;;;;;;6232708;23;20257;-80
2023/09/20 10:51:43;;;;;;;10.50;10.20;;;25.20;99.90;;;;;;6232336;23;20190;-80
2023/09/20 10:54:25;;;;;;;10.40;10.10;;;25.30;99.90;;;;;;6232684;22;20203;-80
2023/09/20 10:57:10;;;;;;;10.13;9.82;;;25.30;99.90;;;;;;6232149;23;20207;-80
2023/09/20 10:59:40;;;;;;;10.63;10.32;;;25.20;99.90;;;;;;6231194;23;20270;-80
2023/09/20 11:02:12;;;;;;;10.20;9.90;;;25.10;99.90;;;;;;6232332;23;20187;-80
2023/09/20 11:04:41;;;;;;;10.57;10.27;;;25.20;99.90;;;;;;6233838;23;20197;-80
2023/09/20 11:07:09;;;;;;;10.30;10.00;;;25.30;99.90;;;;;;6234114;23;20195;-80
2023/09/20 11:09:38;;;;;;;10.30;10.00;;;25.30;99.90;;;;;;6234309;23;20246;-81
2023/09/20 11:12:07;;;;;;;10.40;10.10;;;25.40;99.90;;;;;;6233854;23;20191;-81
2023/09/20 11:14:40;;;;;;;10.40;10.10;;;25.50;99.90;;;;;;6233533;23;20218;-81
2023/09/20 11:17:08;;;;;;;10.70;10.40;;;25.60;99.90;;;;;;6233639;23;20199;-80
2023/09/20 11:19:38;;;;;;;10.40;10.10;;;25.80;99.90;;;;;;6233724;23;20219;-81
2023/09/20 11:22:07;;;;;;;10.50;10.20;;;25.90;99.90;;;;;;6232445;23;20225;-80
2023/09/20 11:24:37;;;;;;;10.38;10.07;;;25.80;99.90;;;;;;6233522;23;20207;-80
2023/09/20 11:27:05;;;;;;;10.38;10.07;;;25.70;99.90;;;;;;6234049;23;20254;-80
2023/09/20 11:29:38;;;;;;;10.20;9.90;;;25.80;99.90;;;;;;6233901;23;20554;-80
2023/09/20 11:32:11;;;;;;;10.10;9.80;;;25.90;99.90;;;;;;6234375;23;20202;-81
2023/09/20 11:34:46;;;;;;;10.10;9.80;;;26.00;99.90;;;;;;6235347;23;20256;-80
2023/09/20 11:37:18;;;;;;;10.20;9.90;;;26.30;99.90;;;;;;6234518;23;20183;-81
2023/09/20 11:39:47;;;;;;;10.07;9.77;;;26.60;99.90;;;;;;6233878;23;20211;-80
2023/09/20 11:42:26;;;;;;;10.02;9.73;;;27.00;99.90;;;;;;6233536;23;20214;-81
2023/09/20 11:44:58;;;;;;;10.00;9.70;;;27.00;99.90;;;;;;6234002;23;20207;-80
2023/09/20 11:47:25;;;;;;;10.10;9.80;;;26.80;99.90;;;;;;6234329;23;20194;-79
2023/09/20 11:49:53;;;;;;;10.00;9.70;;;26.70;99.90;;;;;;6237927;23;20195;-81
2023/09/20 11:52:22;;;;;;;10.07;9.77;;;26.70;99.90;;;;;;6237306;22;20202;-80
2023/09/20 11:54:49;;;;;;;9.98;9.68;;;26.80;99.90;;;;;;6237382;23;20202;-80
2023/09/20 11:57:17;;;;;;;9.85;9.55;;;27.00;99.90;;;;;;6235120;23;20195;-80
2023/09/20 11:59:45;;;;;;;9.90;9.60;;;27.20;99.90;;;;;;6234968;23;20215;-80
2023/09/20 12:02:13;;;;;;;9.90;9.60;;;27.10;99.90;;;;;;6232150;23;20203;-79
2023/09/20 12:04:40;;;;;;;10.10;9.80;;;26.90;99.90;;;;;;6234363;23;20251;-79
2023/09/20 12:07:08;;;;;;;10.00;9.70;;;26.90;99.90;;;;;;6234585;23;20265;-79
2023/09/20 12:09:37;;;;;;;10.07;9.77;;;27.10;99.90;;;;;;6235163;23;20210;-79
2023/09/20 12:12:05;;;;;;;10.05;9.75;;;27.20;99.90;;;;;;6240484;23;20202;-80
2023/09/20 12:14:34;;;;;;;10.32;10.02;;;27.50;99.90;;;;;;6241843;23;20195;-80
2023/09/20 12:17:01;;;;;;;10.57;10.27;;;28.00;99.90;;;;;;6245364;23;20207;-80
2023/09/20 12:19:28;;;;;;;10.50;10.20;;;28.40;99.90;;;;;;6245713;23;20190;-81
2023/09/20 12:21:55;;;;;;;10.52;10.23;;;28.50;99.90;;;;;;6245534;23;20211;-81
2023/09/20 12:24:24;;;;;;;10.30;10.00;;;28.30;99.90;;;;;;6244625;23;20231;-80
2023/09/20 12:26:54;;;;;;;10.30;10.00;;;28.20;99.90;;;;;;6244476;23;20203;-80
2023/09/20 12:29:21;;;;;;;10.30;10.00;;;28.20;99.90;;;;;;6244172;23;20242;-80
2023/09/20 12:31:49;;;;;;;10.48;10.18;;;28.10;99.90;;;;;;6244006;23;20214;-81
2023/09/20 12:34:17;;;;;;;10.00;9.70;;;28.20;99.90;;;;;;6243061;23;20230;-80
2023/09/20 12:36:45;;;;;;;10.18;9.88;;;28.40;99.90;;;;;;6240505;23;20187;-80
2023/09/20 12:39:12;;;;;;;10.57;10.27;;;28.50;99.90;;;;;;6239999;23;20193;-80
2023/09/20 12:41:42;;;;;;;10.90;10.60;;;28.40;99.90;;;;;;6239710;23;20198;-80
2023/09/20 12:44:11;;;;;;;10.80;10.50;;;28.50;99.90;;;;;;6235942;23;20203;-80
2023/09/20 12:46:39;;;;;;;11.00;10.70;;;28.60;99.90;;;;;;6232650;23;20242;-80
2023/09/20 12:49:06;;;;;;;11.00;10.70;;;28.30;99.90;;;;;;6233497;23;20198;-81
2023/09/20 12:51:33;;;;;;;11.20;10.90;;;28.30;99.90;;;;;;6233515;23;20206;-81
2023/09/20 12:54:02;;;;;;;11.02;10.73;;;28.50;99.90;;;;;;6233689;22;20203;-80
2023/09/20 12:56:30;;;;;;;10.80;10.50;;;28.60;99.90;;;;;;6233837;23;20646;-80
2023/09/20 12:58:57;;;;;;;10.90;10.60;;;28.90;99.90;;;;;;6234309;23;20199;-81
2023/09/20 13:01:26;;;;;;;10.48;10.18;;;28.90;99.90;;;;;;6233664;23;20194;-80
2023/09/20 13:03:53;;;;;;;10.30;10.00;;;28.80;99.90;;;;;;6233350;23;20203;-80
2023/09/20 13:06:20;;;;;;;10.50;10.20;;;28.60;99.90;;;;;;6233083;23;20237;-80
2023/09/20 13:08:48;;;;;;;10.57;10.27;;;28.60;99.90;;;;;;6236025;23;20228;-81
2023/09/20 13:11:17;;;;;;;10.20;9.90;;;28.50;99.90;;;;;;6235671;23;20289;-81
2023/09/20 13:13:44;;;;;;;10.40;10.10;;;28.40;99.90;;;;;;6232671;23;20199;-80
2023/09/20 13:16:13;;;;;;;10.43;10.13;;;28.10;99.90;;;;;;6233783;23;20230;-80
2023/09/20 13:18:43;;;;;;;10.23;9.93;;;27.70;99.90;;;;;;6233106;23;20202;-81
2023/09/20 13:21:10;;;;;;;10.73;10.43;;;27.50;99.90;;;;;;6232441;23;20206;-81
2023/09/20 13:23:37;;;;;;;10.57;10.27;;;27.50;99.90;;;;;;6232598;23;20203;-80
2023/09/20 13:26:05;;;;;;;10.50;10.20;;;27.80;99.90;;;;;;6232795;23;20194;-80
2023/09/20 13:28:32;;;;;;;10.50;10.20;;;27.80;99.90;;;;;;6233006;23;20206;-80
2023/09/20 13:31:02;;;;;;;10.50;10.20;;;27.90;99.90;;;;;;6232215;23;20222;-80
2023/09/20 13:33:30;;;;;;;10.38;10.07;;;28.00;99.90;;;;;;6232012;23;20281;-80
2023/09/20 13:36:01;;;;;;;10.50;10.20;;;28.20;99.90;;;;;;6232753;23;20201;-80
2023/09/20 13:38:28;;;;;;;10.90;10.60;;;28.30;99.90;;;;;;6235785;23;20191;-80
2023/09/20 13:40:55;;;;;;;10.60;10.30;;;28.10;99.90;;;;;;6234842;23;20202;-80
2023/09/20 13:43:22;;;;;;;10.50;10.20;;;27.90;99.90;;;;;;6232859;23;20209;-80
2023/09/20 13:45:50;;;;;;;10.70;10.40;;;27.70;99.90;;;;;;6231786;23;20240;-80
2023/09/20 13:48:17;;;;;;;10.80;10.50;;;27.70;99.90;;;;;;6232631;23;20206;-80
2023/09/20 13:50:44;;;;;;;10.80;10.50;;;27.70;99.90;;;;;;6232068;23;20199;-80
2023/09/20 19:53:27;;;;;;;9.80;9.50;;;19.30;99.90;;;;;;6263504;22;20182;-80
2023/09/20 19:55:54;;;;;;;9.77;9.48;;;19.30;99.90;;;;;;6300573;22;20241;-79
2023/09/20 19:58:24;;;;;;;9.40;9.10;;;19.20;99.90;;;;;;6300124;22;20196;-80
2023/09/20 20:00:53;;;;;;;9.60;9.30;;;19.20;99.90;;;;;;6300758;22;20213;-80
2023/09/20 20:03:20;;;;;;;9.35;9.05;;;19.10;99.90;;;;;;6301333;22;20194;-80
2023/09/20 20:05:48;;;;;;;9.32;9.02;;;19.10;99.90;;;;;;6300721;22;20197;-80
2023/09/20 20:08:15;;;;;;;9.32;9.02;;;19.10;99.90;;;;;;6302388;22;20236;-80
2023/09/20 20:10:44;;;;;;;9.00;8.80;;;19.00;99.90;;;;;;6303775;22;20193;-80
2023/09/20 20:13:11;;;;;;;9.05;8.85;;;19.00;99.90;;;;;;6302572;22;20196;-80
2023/09/20 20:15:39;;;;;;;9.23;8.93;;;18.90;99.90;;;;;;6304016;22;20198;-80
2023/09/20 20:18:06;;;;;;;9.20;8.90;;;18.90;99.90;;;;;;6302601;22;20228;-80
2023/09/20 20:20:34;;;;;;;9.10;8.85;;;18.80;99.90;;;;;;6302728;22;20197;-81
2023/09/20 20:23:04;;;;;;;9.38;9.07;;;18.70;99.90;;;;;;6302064;22;20194;-80
2023/09/20 20:25:38;;;;;;;8.90;8.70;;;18.70;99.90;;;;;;6302754;22;20216;-81
2023/09/20 20:28:12;;;;;;;8.95;8.75;;;18.60;99.90;;;;;;6303220;22;20189;-81
2023/09/20 20:30:39;;;;;;;8.90;8.70;;;18.50;99.90;;;;;;6302946;22;20190;-80
2023/09/20 20:33:07;;;;;;;9.30;9.00;;;18.40;99.90;;;;;;6302944;22;20248;-80
2023/09/20 20:35:36;;;;;;;9.50;9.20;;;18.30;99.90;;;;;;6301805;22;20201;-80
2023/09/20 20:38:03;;;;;;;9.35;9.05;;;18.30;99.90;;;;;;6303151;22;20208;-81
2023/09/20 20:40:30;;;;;;;9.65;9.35;;;18.20;99.90;;;;;;6302834;22;20221;-81
2023/09/20 20:42:58;;;;;;;9.60;9.30;;;18.20;99.90;;;;;;6303371;22;20194;-80
2023/09/20 20:45:27;;;;;;;9.82;9.52;;;18.20;99.90;;;;;;6303725;22;20198;-80
2023/09/20 20:47:55;;;;;;;9.82;9.52;;;18.20;99.90;;;;;;6303129;22;20197;-81
2023/09/20 20:50:26;;;;;;;9.73;9.43;;;18.20;99.90;;;;;;6302846;22;20213;-80
2023/09/20 20:52:54;;;;;;;9.85;9.55;;;18.20;99.90;;;;;;6302639;22;20190;-80
2023/09/20 20:55:22;;;;;;;10.20;9.90;;;18.20;99.90;;;;;;6302681;22;20227;-81
2023/09/20 20:57:50;;;;;;;10.00;9.70;;;18.10;99.90;;;;;;6302723;22;20261;-81
2023/09/20 21:00:24;;;;;;;10.27;9.98;;;18.00;99.90;;;;;;6301282;22;20197;-81
2023/09/20 21:02:53;;;;;;;10.10;9.80;;;17.90;99.90;;;;;;6295415;22;20201;-81
2023/09/20 21:05:23;;;;;;;10.10;9.80;;;17.80;99.90;;;;;;6298875;22;20202;-80
2023/09/20 21:07:51;;;;;;;10.25;9.95;;;17.80;99.90;;;;;;6297493;22;20220;-80
2023/09/20 21:10:21;;;;;;;10.15;9.85;;;17.70;99.90;;;;;;6296337;22;20204;-80
2023/09/20 21:12:50;;;;;;;9.95;9.65;;;17.60;99.90;;;;;;6295012;22;20194;-80
2023/09/20 21:15:20;;;;;;;9.75;9.45;;;17.60;99.90;;;;;;6296099;22;20205;-81
2023/09/20 21:17:50;;;;;;;10.00;9.70;;;17.60;99.90;;;;;;6295722;22;20257;-80
2023/09/20 21:20:23;;;;;;;10.10;9.80;;;17.60;99.90;;;;;;6295912;22;20186;-80
2023/09/20 21:22:52;;;;;;;10.10;9.80;;;17.60;99.90;;;;;;6293765;22;20205;-81
2023/09/20 21:25:21;;;;;;;10.23;9.93;;;17.60;99.90;;;;;;6296002;22;20256;-80
2023/09/20 21:27:49;;;;;;;9.88;9.57;;;17.50;99.90;;;;;;6295717;22;20212;-80
2023/09/20 21:30:21;;;;;;;9.90;9.60;;;17.60;99.90;;;;;;6295342;22;20232;-80
2023/09/20 21:32:49;;;;;;;10.00;9.70;;;17.60;99.90;;;;;;6294735;22;20220;-80
2023/09/20 21:35:19;;;;;;;10.10;9.80;;;17.50;99.90;;;;;;6303723;22;20197;-80
2023/09/20 21:37:46;;;;;;;10.00;9.70;;;17.50;99.90;;;;;;6303627;22;20194;-80
2023/09/20 21:40:16;;;;;;;9.90;9.60;;;17.50;99.90;;;;;;6296551;22;20210;-80
2023/09/20 21:42:44;;;;;;;10.20;9.90;;;17.50;99.90;;;;;;6295590;22;20315;-80
2023/09/20 21:45:11;;;;;;;10.13;9.82;;;17.40;99.90;;;;;;6295221;22;20293;-80
2023/09/20 21:47:39;;;;;;;10.10;9.80;;;17.40;99.90;;;;;;6295278;22;20194;-80
2023/09/20 21:50:09;;;;;;;10.00;9.70;;;17.30;99.90;;;;;;6295153;22;20200;-80
2023/09/20 21:52:38;;;;;;;10.10;9.80;;;17.20;99.90;;;;;;6296078;22;20216;-81
2023/09/20 21:55:08;;;;;;;10.02;9.73;;;17.20;99.90;;;;;;6296179;22;20209;-81
2023/09/20 21:57:36;;;;;;;10.30;10.00;;;17.10;99.90;;;;;;6295560;22;20189;-80
2023/09/20 22:00:23;;;;;;;10.20;9.90;;;17.10;99.90;;;;;;6294556;22;20198;-81
2023/09/20 22:02:53;;;;;;;10.27;9.98;;;17.10;99.90;;;;;;6294282;22;20198;-81
2023/09/20 22:05:22;;;;;;;10.60;10.30;;;17.00;99.90;;;;;;6294720;22;20219;-80
2023/09/20 22:07:52;;;;;;;10.68;10.38;;;17.00;99.90;;;;;;6296998;22;20193;-80
2023/09/20 22:10:25;;;;;;;10.73;10.43;;;17.00;99.90;;;;;;6300722;22;20204;-80
2023/09/20 22:12:54;;;;;;;10.50;10.20;;;17.10;99.90;;;;;;6297829;22;20189;-80
2023/09/20 22:15:26;;;;;;;10.70;10.40;;;17.00;99.90;;;;;;6296248;22;20205;-81
2023/09/20 22:17:58;;;;;;;10.43;10.13;;;16.90;99.90;;;;;;6295429;22;20186;-80
2023/09/20 22:20:26;;;;;;;10.40;10.10;;;16.90;99.90;;;;;;6294414;22;20202;-80
2023/09/20 22:22:56;;;;;;;10.10;9.80;;;16.80;99.90;;;;;;6294382;22;20241;-80
2023/09/20 22:25:28;;;;;;;10.40;10.10;;;16.80;99.90;;;;;;6294934;22;20233;-80
2023/09/20 22:27:56;;;;;;;9.85;9.55;;;16.80;99.90;;;;;;6295537;22;20202;-81
2023/09/20 22:30:24;;;;;;;10.20;9.90;;;16.80;99.90;;;;;;6293767;22;20199;-80
2023/09/20 22:32:52;;;;;;;10.23;9.93;;;16.80;99.90;;;;;;6294085;22;20208;-80
2023/09/20 22:35:19;;;;;;;10.30;10.00;;;16.80;99.90;;;;;;6294593;22;20198;-81
2023/09/20 22:37:49;;;;;;;10.02;9.73;;;16.70;99.90;;;;;;6294595;22;20193;-80
2023/09/20 22:40:20;;;;;;;10.15;9.85;;;16.70;99.90;;;;;;6294271;22;20244;-80
2023/09/20 22:42:49;;;;;;;10.40;10.10;;;16.60;99.90;;;;;;6294841;22;20289;-81
2023/09/20 22:45:23;;;;;;;10.25;9.95;;;16.60;99.90;;;;;;6296664;22;20201;-80
2023/09/20 22:47:51;;;;;;;10.38;10.07;;;16.60;99.90;;;;;;6298208;22;20189;-81
2023/09/20 22:50:22;;;;;;;10.13;9.82;;;16.60;99.90;;;;;;6297997;22;20221;-81
2023/09/20 22:52:51;;;;;;;10.20;9.90;;;16.50;99.90;;;;;;6297547;22;20221;-82
2023/09/20 22:55:28;;;;;;;10.43;10.13;;;16.50;99.90;;;;;;6296383;22;20209;-81
2023/09/20 22:57:59;;;;;;;10.20;9.90;;;16.50;99.90;;;;;;6295909;22;20207;-80
2023/09/20 23:00:29;;;;;;;9.85;9.55;;;16.50;99.90;;;;;;6296005;22;20204;-80
2023/09/20 23:02:56;;;;;;;9.85;9.55;;;16.40;99.90;;;;;;6300778;22;20201;-80
2023/09/20 23:05:25;;;;;;;9.88;9.57;;;16.40;99.90;;;;;;6299567;22;20193;-81
2023/09/20 23:07:53;;;;;;;9.90;9.60;;;16.40;99.90;;;;;;6303159;22;20224;-80
2023/09/20 23:10:24;;;;;;;10.10;9.80;;;16.40;99.90;;;;;;6305083;22;20216;-80
2023/09/20 23:12:53;;;;;;;10.10;9.80;;;16.40;99.90;;;;;;6304446;22;20200;-80
2023/09/20 23:15:21;;;;;;;10.07;9.77;;;16.40;99.90;;;;;;6302470;22;20205;-81
2023/09/20 23:17:50;;;;;;;10.05;9.75;;;16.30;99.90;;;;;;6296125;22;20228;-81
2023/09/20 23:20:24;;;;;;;10.00;9.70;;;16.30;99.90;;;;;;6296499;22;20236;-81
2023/09/20 23:22:51;;;;;;;10.18;9.88;;;16.40;99.90;;;;;;6296875;22;20197;-81
2023/09/20 23:25:20;;;;;;;9.85;9.55;;;16.40;99.90;;;;;;6296139;22;20206;-80
2023/09/20 23:28:00;;;;;;;9.90;9.60;;;16.40;99.90;;;;;;6295570;22;20256;-82
2023/09/20 23:30:30;;;;;;;10.07;9.77;;;16.40;99.90;;;;;;6296687;22;20200;-81
2023/09/20 23:32:59;;;;;;;10.00;9.70;;;16.40;99.90;;;;;;6294895;22;20205;-81
2023/09/20 23:35:28;;;;;;;10.02;9.73;;;16.30;99.90;;;;;;6295140;22;20224;-80
2023/09/20 23:37:57;;;;;;;10.10;9.80;;;16.30;99.90;;;;;;6296866;22;20194;-81
2023/09/20 23:40:25;;;;;;;10.07;9.77;;;16.30;99.90;;;;;;6297534;22;20246;-81
2023/09/20 23:42:56;;;;;;;9.70;9.40;;;16.30;99.90;;;;;;6295340;22;20279;-81
2023/09/20 23:45:23;;;;;;;9.60;9.30;;;16.20;99.90;;;;;;6294973;22;20209;-81
2023/09/20 23:47:50;;;;;;;9.55;9.25;;;16.20;99.90;;;;;;6295794;22;20206;-80
2023/09/20 23:50:17;;;;;;;9.90;9.60;;;16.10;99.90;;;;;;6295740;22;20248;-81
2023/09/20 23:52:44;;;;;;;9.70;9.40;;;16.10;99.90;;;;;;6295088;22;20212;-81
2023/09/20 23:55:11;;;;;;;9.55;9.25;;;16.10;99.90;;;;;;6295681;22;20252;-81
2023/09/20 23:57:39;;;;;;;9.65;9.35;;;16.00;99.90;;;;;;6295906;22;20190;-81
